Time;durP1;ratioP1;P1;durP2;ratioP2;P2;SDS_P1;SDS_P2;PMS_P1;PMS_P2;Temp;Humidity;BMP_temperature;BMP_pressure;BME280_temperature;BME280_humidity;BME280_pressure;Samples;Min_cycle;Max_cycle;Signal;HPM_P1;HPM_P2
2024/03/06 00:00:26;;;;;;;40.38;15.30;;;;;;;;;;6191854;23;20226;-88
2024/03/06 00:03:30;;;;;;;39.90;16.80;;;;;;;;;;6193319;23;20168;-89
2024/03/06 00:06:37;;;;;;;44.47;17.83;;;;;;;;;;6177105;23;20172;-87
2024/03/06 00:09:45;;;;;;;35.97;15.43;;;;;;;;;;6176292;23;20775;-89
2024/03/06 00:12:49;;;;;;;35.60;15.60;;;;;;;;;;6195882;23;20175;-88
2024/03/06 00:15:58;;;;;;;37.30;15.43;;;;;;;;;;6177827;23;20175;-86
2024/03/06 00:19:03;;;;;;;39.60;16.02;;;;;;;;;;6196803;23;20176;-89
2024/03/06 00:22:09;;;;;;;37.90;15.43;;;;;;;;;;6200162;23;20171;-88
2024/03/06 00:25:14;;;;;;;38.13;15.40;;;;;;;;;;6179440;23;20287;-88
2024/03/06 00:28:19;;;;;;;45.83;16.63;;;;;;;;;;6196907;23;20179;-88
2024/03/06 00:31:24;;;;;;;41.28;16.38;;;;;;;;;;6196563;23;20164;-89
2024/03/06 00:34:30;;;;;;;40.67;15.25;;;;;;;;;;6197614;23;20631;-87
2024/03/06 00:37:37;;;;;;;42.47;15.43;;;;;;;;;;6196850;23;20168;-89
2024/03/06 00:40:41;;;;;;;38.78;14.73;;;;;;;;;;6196702;23;20702;-89
2024/03/06 00:43:46;;;;;;;35.10;13.90;;;;;;;;;;6178719;23;20356;-89
2024/03/06 00:46:51;;;;;;;40.20;15.48;;;;;;;;;;6178549;23;20192;-88
2024/03/06 00:49:57;;;;;;;33.85;14.10;;;;;;;;;;6194188;23;20474;-88
2024/03/06 00:53:05;;;;;;;38.83;15.38;;;;;;;;;;6196791;23;20175;-87
2024/03/06 00:56:10;;;;;;;40.65;15.00;;;;;;;;;;6178290;23;20163;-87
2024/03/06 00:59:15;;;;;;;34.55;14.55;;;;;;;;;;6194671;23;20611;-88
2024/03/06 01:02:20;;;;;;;37.55;15.05;;;;;;;;;;6178146;23;20152;-87
2024/03/06 01:05:25;;;;;;;35.88;15.07;;;;;;;;;;6195624;23;20172;-88
2024/03/06 01:08:31;;;;;;;42.28;16.27;;;;;;;;;;6194982;23;20176;-87
2024/03/06 01:11:37;;;;;;;41.10;15.13;;;;;;;;;;6177694;23;20191;-87
2024/03/06 01:14:42;;;;;;;40.20;16.02;;;;;;;;;;6194576;23;20172;-88
2024/03/06 01:17:47;;;;;;;44.67;17.05;;;;;;;;;;6195366;23;20192;-88
2024/03/06 01:20:52;;;;;;;42.30;16.40;;;;;;;;;;6179461;23;20323;-88
2024/03/06 01:23:59;;;;;;;42.80;15.57;;;;;;;;;;6179732;23;20215;-88
2024/03/06 01:27:04;;;;;;;44.25;16.40;;;;;;;;;;6178768;23;20168;-88
2024/03/06 01:30:09;;;;;;;44.25;16.67;;;;;;;;;;6196535;23;20369;-89
2024/03/06 01:33:14;;;;;;;46.95;16.73;;;;;;;;;;6196478;23;20186;-87
2024/03/06 01:36:19;;;;;;;40.20;15.93;;;;;;;;;;6195800;23;20175;-88
2024/03/06 01:39:26;;;;;;;47.55;16.77;;;;;;;;;;6177662;23;20172;-87
2024/03/06 01:42:31;;;;;;;41.10;15.80;;;;;;;;;;6197570;23;20283;-89
2024/03/06 01:45:37;;;;;;;39.38;15.10;;;;;;;;;;6193175;23;20168;-89
2024/03/06 01:48:42;;;;;;;36.20;15.13;;;;;;;;;;6192805;23;20156;-89
2024/03/06 01:51:50;;;;;;;43.88;16.48;;;;;;;;;;6177269;23;20164;-89
2024/03/06 01:54:57;;;;;;;39.80;16.05;;;;;;;;;;6192964;23;20167;-89
2024/03/06 01:58:02;;;;;;;43.13;16.33;;;;;;;;;;6193287;23;20155;-88
2024/03/06 02:01:07;;;;;;;45.17;16.55;;;;;;;;;;6176081;23;20784;-87
2024/03/06 02:04:13;;;;;;;41.17;15.15;;;;;;;;;;6176311;23;20250;-86
2024/03/06 02:07:18;;;;;;;42.33;16.45;;;;;;;;;;6176420;23;20608;-89
2024/03/06 02:10:26;;;;;;;42.60;16.17;;;;;;;;;;6178041;23;20248;-88
2024/03/06 02:13:31;;;;;;;42.75;16.15;;;;;;;;;;6197391;23;20144;-88
2024/03/06 02:16:36;;;;;;;40.47;15.70;;;;;;;;;;6178219;23;20261;-87
2024/03/06 02:19:46;;;;;;;44.28;15.70;;;;;;;;;;6195918;23;20155;-89
2024/03/06 02:22:52;;;;;;;41.63;16.10;;;;;;;;;;6179983;23;20493;-87
2024/03/06 02:25:58;;;;;;;40.15;14.98;;;;;;;;;;6196079;23;20160;-88
2024/03/06 02:29:05;;;;;;;41.53;15.43;;;;;;;;;;6181017;23;20151;-87
2024/03/06 02:32:10;;;;;;;40.10;15.65;;;;;;;;;;6193886;23;20171;-88
2024/03/06 02:35:15;;;;;;;42.80;15.52;;;;;;;;;;6198409;23;20175;-88
2024/03/06 02:38:21;;;;;;;40.15;15.75;;;;;;;;;;6179246;23;20171;-87
2024/03/06 02:41:26;;;;;;;38.70;15.27;;;;;;;;;;6179050;23;20195;-88
2024/03/06 02:44:31;;;;;;;44.40;16.38;;;;;;;;;;6178797;23;20262;-88
2024/03/06 02:47:36;;;;;;;43.88;15.82;;;;;;;;;;6178384;23;20210;-88
2024/03/06 02:50:41;;;;;;;43.92;15.63;;;;;;;;;;6179451;23;20215;-89
2024/03/06 02:53:49;;;;;;;44.22;16.38;;;;;;;;;;6179661;23;20212;-88
2024/03/06 02:56:54;;;;;;;35.40;14.50;;;;;;;;;;6179352;23;20207;-88
2024/03/06 03:00:00;;;;;;;43.33;16.35;;;;;;;;;;6194442;23;20284;-88
2024/03/06 03:03:05;;;;;;;43.42;16.42;;;;;;;;;;6195948;23;20175;-88
2024/03/06 03:06:10;;;;;;;47.92;16.40;;;;;;;;;;6177780;23;20172;-88
2024/03/06 03:09:16;;;;;;;46.30;16.30;;;;;;;;;;6177291;23;20167;-88
2024/03/06 03:12:21;;;;;;;44.37;16.87;;;;;;;;;;6194278;23;20172;-87
2024/03/06 03:15:26;;;;;;;41.87;16.63;;;;;;;;;;6175205;23;20207;-87
2024/03/06 03:18:32;;;;;;;45.58;15.77;;;;;;;;;;6177427;23;20168;-88
2024/03/06 03:21:37;;;;;;;43.67;16.70;;;;;;;;;;6194533;23;20195;-87
2024/03/06 03:24:44;;;;;;;44.50;16.13;;;;;;;;;;6177898;23;20163;-88
2024/03/06 03:27:49;;;;;;;47.30;17.13;;;;;;;;;;6176539;23;20192;-88
2024/03/06 03:30:54;;;;;;;45.15;16.58;;;;;;;;;;6175107;23;20172;-87
2024/03/06 03:33:59;;;;;;;45.80;16.90;;;;;;;;;;6175338;23;20211;-89
2024/03/06 03:37:04;;;;;;;44.00;16.33;;;;;;;;;;6175477;23;20238;-87
2024/03/06 03:40:12;;;;;;;48.23;16.50;;;;;;;;;;6193121;23;20163;-89
2024/03/06 03:43:17;;;;;;;45.42;16.83;;;;;;;;;;6195177;23;20183;-89
2024/03/06 03:46:22;;;;;;;42.60;16.67;;;;;;;;;;6176919;23;20167;-87
2024/03/06 03:49:27;;;;;;;43.13;16.97;;;;;;;;;;6177073;23;20168;-87
2024/03/06 03:52:32;;;;;;;48.17;17.67;;;;;;;;;;6196695;23;20172;-87
2024/03/06 03:55:38;;;;;;;44.03;16.50;;;;;;;;;;6195839;23;20171;-87
2024/03/06 03:58:44;;;;;;;45.80;16.20;;;;;;;;;;6195284;23;20167;-87
2024/03/06 04:01:50;;;;;;;43.90;16.23;;;;;;;;;;6178449;23;20183;-87
2024/03/06 04:04:55;;;;;;;49.50;17.00;;;;;;;;;;6176912;23;20623;-87
2024/03/06 04:08:00;;;;;;;48.03;16.67;;;;;;;;;;6178877;23;20200;-87
2024/03/06 04:11:07;;;;;;;46.93;16.37;;;;;;;;;;6178281;23;20219;-87
2024/03/06 04:14:12;;;;;;;43.93;16.37;;;;;;;;;;6176436;23;20164;-89
2024/03/06 04:17:17;;;;;;;47.27;16.63;;;;;;;;;;6195241;23;20171;-88
2024/03/06 04:20:25;;;;;;;44.47;15.63;;;;;;;;;;6177580;23;20168;-89
2024/03/06 04:23:30;;;;;;;45.80;15.87;;;;;;;;;;6195976;23;20172;-88
2024/03/06 04:26:36;;;;;;;49.13;16.03;;;;;;;;;;6175444;23;20165;-88
2024/03/06 04:29:42;;;;;;;43.37;16.07;;;;;;;;;;6193166;23;20160;-87
2024/03/06 04:32:47;;;;;;;46.77;16.43;;;;;;;;;;6194661;23;20167;-89
2024/03/06 04:35:52;;;;;;;49.40;17.00;;;;;;;;;;6177205;23;20596;-88
2024/03/06 04:38:57;;;;;;;48.00;16.83;;;;;;;;;;6194903;23;20164;-88
2024/03/06 04:42:05;;;;;;;45.13;17.07;;;;;;;;;;6195735;23;20195;-87
2024/03/06 04:45:13;;;;;;;50.93;17.10;;;;;;;;;;6195510;23;20200;-88
2024/03/06 04:48:18;;;;;;;54.27;17.27;;;;;;;;;;6176952;23;20631;-89
2024/03/06 04:51:23;;;;;;;42.90;15.70;;;;;;;;;;6177444;23;20235;-87
2024/03/06 04:54:28;;;;;;;52.17;16.83;;;;;;;;;;6193965;23;20168;-88
2024/03/06 04:57:34;;;;;;;47.00;16.47;;;;;;;;;;6177217;23;20172;-88
2024/03/06 05:00:39;;;;;;;50.70;17.53;;;;;;;;;;6196562;23;20152;-87
2024/03/06 05:03:45;;;;;;;46.27;16.37;;;;;;;;;;6177808;23;20207;-87
2024/03/06 05:06:50;;;;;;;46.00;16.53;;;;;;;;;;6196691;23;20168;-88
2024/03/06 05:09:55;;;;;;;45.33;16.57;;;;;;;;;;6195868;23;20184;-86
2024/03/06 05:13:01;;;;;;;53.30;18.03;;;;;;;;;;6195680;23;20179;-88
2024/03/06 05:16:07;;;;;;;50.70;16.67;;;;;;;;;;6197333;23;20151;-87
2024/03/06 05:19:13;;;;;;;48.23;17.83;;;;;;;;;;6179008;23;20667;-87
2024/03/06 05:22:18;;;;;;;48.07;16.73;;;;;;;;;;6196733;23;20200;-88
2024/03/06 05:25:24;;;;;;;40.33;15.40;;;;;;;;;;6179835;23;20620;-88
2024/03/06 05:28:31;;;;;;;43.43;15.93;;;;;;;;;;6177577;23;20168;-88
2024/03/06 05:31:39;;;;;;;48.13;17.23;;;;;;;;;;6195959;23;20794;-89
2024/03/06 05:34:44;;;;;;;46.27;17.80;;;;;;;;;;6176974;23;21002;-88
2024/03/06 05:37:50;;;;;;;44.13;16.70;;;;;;;;;;6198119;23;20581;-87
2024/03/06 05:40:55;;;;;;;56.77;18.77;;;;;;;;;;6196713;23;20611;-88
2024/03/06 05:44:01;;;;;;;50.77;17.17;;;;;;;;;;6198395;23;20183;-88
2024/03/06 05:47:07;;;;;;;44.30;16.23;;;;;;;;;;6198265;23;20306;-89
2024/03/06 05:50:13;;;;;;;53.37;18.40;;;;;;;;;;6197031;23;20273;-89
2024/03/06 05:53:18;;;;;;;48.50;17.60;;;;;;;;;;6180242;23;20191;-88
2024/03/06 05:56:23;;;;;;;47.67;16.57;;;;;;;;;;6179036;23;20164;-87
2024/03/06 05:59:29;;;;;;;47.37;17.70;;;;;;;;;;6179693;23;20168;-88
2024/03/06 06:02:35;;;;;;;50.17;17.50;;;;;;;;;;6179345;23;20527;-88
2024/03/06 06:05:40;;;;;;;47.27;16.57;;;;;;;;;;6200236;23;20620;-89
2024/03/06 06:08:45;;;;;;;44.87;16.10;;;;;;;;;;6198942;23;20179;-89
2024/03/06 06:11:51;;;;;;;45.23;17.67;;;;;;;;;;6198488;23;20179;-89
2024/03/06 06:14:57;;;;;;;63.93;17.83;;;;;;;;;;6196502;23;20167;-89
2024/03/06 06:18:05;;;;;;;51.43;16.93;;;;;;;;;;6183175;23;20221;-89
2024/03/06 06:21:11;;;;;;;49.80;17.43;;;;;;;;;;6181595;23;20268;-87
2024/03/06 06:24:16;;;;;;;49.30;17.23;;;;;;;;;;6180787;23;20168;-87
2024/03/06 06:27:21;;;;;;;40.47;16.07;;;;;;;;;;6201317;23;20172;-88
2024/03/06 06:30:28;;;;;;;44.77;16.33;;;;;;;;;;6198241;23;20231;-89
2024/03/06 06:33:33;;;;;;;46.80;16.80;;;;;;;;;;6198893;23;20151;-88
2024/03/06 06:36:40;;;;;;;40.33;15.93;;;;;;;;;;6197113;23;20168;-88
2024/03/06 06:39:48;;;;;;;44.30;16.13;;;;;;;;;;6195785;23;20172;-89
2024/03/06 06:42:54;;;;;;;43.23;16.23;;;;;;;;;;6196227;23;20192;-89
2024/03/06 06:46:01;;;;;;;46.93;16.47;;;;;;;;;;6179457;23;20168;-88
2024/03/06 06:49:07;;;;;;;48.83;17.17;;;;;;;;;;6198233;23;20183;-88
2024/03/06 06:52:12;;;;;;;42.27;15.57;;;;;;;;;;6195354;23;20176;-89
2024/03/06 06:55:17;;;;;;;45.33;16.67;;;;;;;;;;6197097;23;20172;-89
2024/03/06 06:58:22;;;;;;;41.60;16.80;;;;;;;;;;6196731;23;20612;-86
2024/03/06 07:01:29;;;;;;;49.37;18.50;;;;;;;;;;6199105;23;20259;-88
2024/03/06 07:04:34;;;;;;;42.13;16.00;;;;;;;;;;6182060;23;20175;-90
2024/03/06 07:07:41;;;;;;;45.63;15.47;;;;;;;;;;6178714;23;20168;-89
2024/03/06 07:10:46;;;;;;;41.57;15.17;;;;;;;;;;6197536;23;20167;-88
2024/03/06 07:13:53;;;;;;;46.43;15.50;;;;;;;;;;6198370;23;20172;-89
2024/03/06 07:16:59;;;;;;;36.93;14.93;;;;;;;;;;6180509;23;20215;-89
2024/03/06 07:20:08;;;;;;;41.23;15.17;;;;;;;;;;6198771;23;20235;-88
2024/03/06 07:23:13;;;;;;;38.33;14.80;;;;;;;;;;6179197;23;20191;-88
2024/03/06 07:26:18;;;;;;;44.63;15.67;;;;;;;;;;6178052;23;20627;-88
2024/03/06 07:29:23;;;;;;;39.22;15.27;;;;;;;;;;6198361;23;20151;-88
2024/03/06 07:32:30;;;;;;;44.90;16.95;;;;;;;;;;6179941;23;20167;-86
2024/03/06 07:35:37;;;;;;;44.28;15.40;;;;;;;;;;6182169;23;20171;-88
2024/03/06 07:38:42;;;;;;;40.08;16.13;;;;;;;;;;6179102;23;20592;-88
2024/03/06 07:41:48;;;;;;;40.28;15.00;;;;;;;;;;6197516;23;20204;-87
2024/03/06 07:44:53;;;;;;;40.20;15.20;;;;;;;;;;6196975;23;20560;-89
2024/03/06 07:48:00;;;;;;;36.88;14.70;;;;;;;;;;6196375;23;20183;-89
2024/03/06 07:51:05;;;;;;;38.38;15.23;;;;;;;;;;6180145;23;20163;-87
2024/03/06 07:54:10;;;;;;;44.13;15.43;;;;;;;;;;6179096;23;20171;-89
2024/03/06 07:57:16;;;;;;;41.13;15.20;;;;;;;;;;6193565;23;20495;-88
2024/03/06 08:00:22;;;;;;;42.35;15.90;;;;;;;;;;6176303;23;20242;-88
2024/03/06 08:03:30;;;;;;;38.53;14.38;;;;;;;;;;6178951;23;20338;-89
2024/03/06 08:06:37;;;;;;;38.00;14.25;;;;;;;;;;6196891;23;20195;-89
2024/03/06 08:09:43;;;;;;;34.20;14.18;;;;;;;;;;6197083;23;20171;-89
2024/03/06 08:12:49;;;;;;;31.02;13.98;;;;;;;;;;6195043;23;20171;-87
2024/03/06 08:15:54;;;;;;;37.78;13.85;;;;;;;;;;6196047;23;20215;-91
2024/03/06 08:19:01;;;;;;;32.58;13.48;;;;;;;;;;6179384;23;20167;-88
2024/03/06 08:22:06;;;;;;;31.65;13.52;;;;;;;;;;6196612;23;20239;-89
2024/03/06 08:25:11;;;;;;;36.90;13.20;;;;;;;;;;6196240;23;20164;-88
2024/03/06 08:28:17;;;;;;;32.83;12.68;;;;;;;;;;6194572;23;20155;-89
2024/03/06 08:31:22;;;;;;;30.50;12.52;;;;;;;;;;6197362;23;20191;-88
2024/03/06 08:34:31;;;;;;;28.35;11.63;;;;;;;;;;6197376;23;20164;-90
2024/03/06 08:37:39;;;;;;;30.48;13.30;;;;;;;;;;6181322;23;20179;-89
2024/03/06 08:40:45;;;;;;;27.95;12.55;;;;;;;;;;6196869;23;20168;-89
2024/03/06 08:43:51;;;;;;;28.67;11.52;;;;;;;;;;6196624;23;20542;-89
2024/03/06 08:46:56;;;;;;;33.38;12.05;;;;;;;;;;6180761;23;20152;-89
2024/03/06 08:50:03;;;;;;;28.95;12.13;;;;;;;;;;6180337;23;20266;-90
2024/03/06 08:53:09;;;;;;;27.83;12.50;;;;;;;;;;6198514;23;20172;-90
2024/03/06 08:56:15;;;;;;;31.63;12.90;;;;;;;;;;6182493;23;20183;-89
2024/03/06 08:59:19;;;;;;;29.40;12.48;;;;;;;;;;6198197;23;20168;-88
2024/03/06 09:02:25;;;;;;;29.98;12.38;;;;;;;;;;6181205;23;20191;-89
2024/03/06 09:05:32;;;;;;;26.23;10.68;;;;;;;;;;6180726;23;20168;-89
2024/03/06 09:08:37;;;;;;;26.67;11.48;;;;;;;;;;6195570;23;20168;-88
2024/03/06 09:11:43;;;;;;;27.38;11.57;;;;;;;;;;6180303;23;20175;-88
2024/03/06 09:14:48;;;;;;;29.65;11.98;;;;;;;;;;6195711;23;20236;-89
2024/03/06 09:17:58;;;;;;;27.52;12.10;;;;;;;;;;6177051;23;20249;-90
2024/03/06 09:21:05;;;;;;;26.83;11.57;;;;;;;;;;6177464;23;20172;-91
2024/03/06 09:24:10;;;;;;;25.30;11.27;;;;;;;;;;6178601;23;20530;-88
2024/03/06 09:27:16;;;;;;;28.25;11.50;;;;;;;;;;6177760;23;20175;-87
2024/03/06 09:30:21;;;;;;;29.58;11.68;;;;;;;;;;6197137;23;20172;-90
2024/03/06 09:33:29;;;;;;;26.52;11.15;;;;;;;;;;6199199;23;20168;-87
2024/03/06 09:36:36;;;;;;;24.15;11.20;;;;;;;;;;6182071;23;20168;-89
2024/03/06 09:39:46;;;;;;;25.40;10.63;;;;;;;;;;6198529;23;20210;-88
2024/03/06 09:42:52;;;;;;;24.40;10.55;;;;;;;;;;6198227;23;20198;-89
2024/03/06 09:45:58;;;;;;;22.20;10.05;;;;;;;;;;6199208;23;20191;-90
2024/03/06 09:49:03;;;;;;;21.98;9.30;;;;;;;;;;6198144;23;20167;-89
2024/03/06 09:52:10;;;;;;;27.80;11.50;;;;;;;;;;6179691;23;20324;-88
2024/03/06 09:55:16;;;;;;;25.40;10.32;;;;;;;;;;6198436;23;20247;-88
2024/03/06 09:58:21;;;;;;;19.88;9.70;;;;;;;;;;6196955;23;20190;-90
2024/03/06 10:01:27;;;;;;;24.38;10.18;;;;;;;;;;6177939;23;20496;-91
2024/03/06 10:04:37;;;;;;;22.58;10.68;;;;;;;;;;6177987;23;20175;-91
2024/03/06 10:07:43;;;;;;;23.02;9.68;;;;;;;;;;6197278;23;20183;-90
2024/03/06 10:10:49;;;;;;;19.77;9.63;;;;;;;;;;6180032;23;20577;-89
2024/03/06 10:13:54;;;;;;;19.85;9.18;;;;;;;;;;6180186;23;20219;-89
2024/03/06 10:17:04;;;;;;;20.48;8.75;;;;;;;;;;6179116;23;20238;-89
2024/03/06 10:20:23;;;;;;;17.27;8.45;;;;;;;;;;6176534;23;20164;-90
2024/03/06 10:23:30;;;;;;;20.00;8.73;;;;;;;;;;6177097;23;20195;-88
2024/03/06 10:26:35;;;;;;;19.20;9.35;;;;;;;;;;6178863;23;20168;-90
2024/03/06 10:29:41;;;;;;;18.15;8.80;;;;;;;;;;6179879;23;20168;-89
2024/03/06 10:32:46;;;;;;;21.52;9.18;;;;;;;;;;6177575;23;20172;-89
2024/03/06 10:35:52;;;;;;;18.95;8.65;;;;;;;;;;6175617;23;20164;-90
2024/03/06 10:39:00;;;;;;;21.10;8.95;;;;;;;;;;6179694;23;20187;-89
2024/03/06 10:42:08;;;;;;;20.45;8.90;;;;;;;;;;6178829;23;20240;-89
2024/03/06 10:45:15;;;;;;;17.67;8.48;;;;;;;;;;6179214;23;20207;-90
2024/03/06 10:48:20;;;;;;;18.48;8.48;;;;;;;;;;6178098;23;20164;-90
2024/03/06 10:51:26;;;;;;;17.15;8.52;;;;;;;;;;6178318;23;20172;-90
2024/03/06 10:54:34;;;;;;;16.90;8.25;;;;;;;;;;6178335;23;20531;-89
2024/03/06 10:57:41;;;;;;;19.38;8.80;;;;;;;;;;6178971;23;20163;-91
2024/03/06 11:00:47;;;;;;;19.35;8.63;;;;;;;;;;6180057;23;20167;-90
2024/03/06 11:03:52;;;;;;;19.02;9.30;;;;;;;;;;6181185;23;20239;-90
2024/03/06 11:06:59;;;;;;;20.98;9.25;;;;;;;;;;6179360;23;20168;-90
2024/03/06 11:10:07;;;;;;;19.02;9.05;;;;;;;;;;6178991;23;20184;-90
2024/03/06 11:13:23;;;;;;;16.25;8.13;;;;;;;;;;6180618;23;20172;-89
2024/03/06 11:16:29;;;;;;;18.48;8.45;;;;;;;;;;6177639;23;20607;-90
2024/03/06 11:19:55;;;;;;;17.95;8.50;;;;;;;;;;6180828;23;20180;-90
2024/03/06 11:23:10;;;;;;;19.10;8.23;;;;;;;;;;6178876;23;20525;-89
2024/03/06 11:26:19;;;;;;;17.83;7.95;;;;;;;;;;6179386;23;20176;-88
2024/03/06 11:29:26;;;;;;;23.58;8.77;;;;;;;;;;6179825;23;20164;-90
2024/03/06 11:32:32;;;;;;;18.70;8.50;;;;;;;;;;6180660;23;20303;-89
2024/03/06 11:35:39;;;;;;;18.85;8.23;;;;;;;;;;6178889;23;20239;-90
2024/03/06 11:38:48;;;;;;;18.73;8.55;;;;;;;;;;6179580;23;20319;-91
2024/03/06 11:41:55;;;;;;;19.92;8.93;;;;;;;;;;6179546;23;20499;-88
2024/03/06 11:45:03;;;;;;;17.15;7.93;;;;;;;;;;6178781;23;20198;-90
2024/03/06 11:48:14;;;;;;;21.15;8.52;;;;;;;;;;6178461;23;20279;-89
2024/03/06 11:51:20;;;;;;;17.63;8.07;;;;;;;;;;6177658;23;20172;-90
2024/03/06 11:54:26;;;;;;;20.73;8.68;;;;;;;;;;6180138;23;20184;-90
2024/03/06 11:57:36;;;;;;;25.35;9.48;;;;;;;;;;6178745;23;20172;-90
2024/03/06 12:00:45;;;;;;;22.42;9.63;;;;;;;;;;6178103;23;20168;-89
2024/03/06 12:03:50;;;;;;;22.63;9.05;;;;;;;;;;6202643;23;20187;-90
2024/03/06 12:06:58;;;;;;;15.68;7.97;;;;;;;;;;6180967;23;20171;-89
2024/03/06 12:10:04;;;;;;;20.67;9.07;;;;;;;;;;6179215;23;20276;-89
2024/03/06 12:13:11;;;;;;;23.58;9.13;;;;;;;;;;6180572;23;20627;-89
2024/03/06 12:16:16;;;;;;;21.77;9.35;;;;;;;;;;6197301;23;20174;-87
2024/03/06 12:19:21;;;;;;;28.15;9.50;;;;;;;;;;6180406;23;20163;-87
2024/03/06 12:22:26;;;;;;;21.45;9.18;;;;;;;;;;6181189;23;20180;-90
2024/03/06 12:25:32;;;;;;;21.90;9.10;;;;;;;;;;6182243;23;20186;-89
2024/03/06 12:28:43;;;;;;;19.40;8.93;;;;;;;;;;6184244;23;20171;-89
2024/03/06 12:31:48;;;;;;;22.08;9.88;;;;;;;;;;6184125;23;20210;-88
2024/03/06 12:35:00;;;;;;;21.67;9.70;;;;;;;;;;6182955;23;20219;-90
2024/03/06 12:38:13;;;;;;;20.77;9.27;;;;;;;;;;6182708;23;20175;-90
2024/03/06 12:41:19;;;;;;;24.67;10.90;;;;;;;;;;6185913;23;20163;-90
2024/03/06 12:44:26;;;;;;;23.70;10.32;;;;;;;;;;6186370;23;20264;-89
2024/03/06 12:47:32;;;;;;;25.65;10.35;;;;;;;;;;6205519;23;20307;-88
2024/03/06 12:50:37;;;;;;;23.55;10.73;;;;;;;;;;6200910;23;20227;-89
2024/03/06 12:53:43;;;;;;;25.63;11.43;;;;;;;;;;6199925;23;20203;-87
2024/03/06 12:56:48;;;;;;;24.85;10.98;;;;;;;;;;6203152;23;20188;-88
2024/03/06 12:59:55;;;;;;;25.65;11.80;;;;;;;;;;6196719;23;20172;-88
2024/03/06 13:03:00;;;;;;;24.85;11.35;;;;;;;;;;6180142;23;20175;-89
2024/03/06 13:06:06;;;;;;;31.60;13.27;;;;;;;;;;6210236;23;20203;-89
2024/03/06 13:09:16;;;;;;;29.33;12.50;;;;;;;;;;6196596;23;20152;-89
2024/03/06 13:12:21;;;;;;;27.73;15.00;;;;;;;;;;6197111;23;20241;-89
2024/03/06 13:15:27;;;;;;;23.85;12.35;;;;;;;;;;6196207;23;20176;-88
2024/03/06 13:18:32;;;;;;;29.00;12.27;;;;;;;;;;6198405;23;20208;-88
2024/03/06 13:21:39;;;;;;;25.73;12.43;;;;;;;;;;6199039;23;20259;-89
2024/03/06 13:24:46;;;;;;;23.95;12.02;;;;;;;;;;6180152;23;20187;-90
2024/03/06 13:27:54;;;;;;;26.83;12.23;;;;;;;;;;6203065;23;20274;-90
2024/03/06 13:31:01;;;;;;;27.38;12.85;;;;;;;;;;6184690;23;20164;-90
2024/03/06 13:34:06;;;;;;;28.83;12.48;;;;;;;;;;6201237;23;20191;-89
2024/03/06 13:37:12;;;;;;;26.27;12.15;;;;;;;;;;6198079;23;20171;-89
2024/03/06 13:40:26;;;;;;;28.60;12.95;;;;;;;;;;6195660;23;20236;-89
2024/03/06 13:43:32;;;;;;;29.77;12.93;;;;;;;;;;6199133;23;20207;-89
2024/03/06 13:46:39;;;;;;;28.33;12.30;;;;;;;;;;6181225;23;20415;-88
2024/03/06 13:49:45;;;;;;;30.10;13.50;;;;;;;;;;6195514;23;20171;-89
2024/03/06 13:52:50;;;;;;;29.27;13.75;;;;;;;;;;6179026;23;20167;-89
2024/03/06 13:55:56;;;;;;;34.28;13.90;;;;;;;;;;6194544;23;20292;-88
2024/03/06 13:59:02;;;;;;;31.05;13.10;;;;;;;;;;6200144;23;20195;-89
2024/03/06 14:02:10;;;;;;;28.15;12.38;;;;;;;;;;6180272;23;20180;-89
2024/03/06 14:05:15;;;;;;;28.73;13.45;;;;;;;;;;6197742;23;20207;-90
2024/03/06 14:08:22;;;;;;;34.05;13.88;;;;;;;;;;6200917;23;20168;-90
2024/03/06 14:11:27;;;;;;;32.08;14.20;;;;;;;;;;6199400;23;20172;-89
2024/03/06 14:14:33;;;;;;;30.45;13.13;;;;;;;;;;6183304;23;20159;-89
2024/03/06 14:17:40;;;;;;;32.67;13.82;;;;;;;;;;6199494;23;20164;-90
2024/03/06 14:20:45;;;;;;;32.88;14.20;;;;;;;;;;6181139;23;20218;-88
2024/03/06 14:23:54;;;;;;;30.25;13.50;;;;;;;;;;6183344;23;20252;-90
2024/03/06 14:26:59;;;;;;;25.58;12.38;;;;;;;;;;6199206;23;20169;-89
2024/03/06 14:30:07;;;;;;;23.98;10.55;;;;;;;;;;6201058;23;20164;-90
2024/03/06 14:33:17;;;;;;;26.83;9.90;;;;;;;;;;6198322;23;20242;-88
2024/03/06 14:36:24;;;;;;;21.40;9.30;;;;;;;;;;6182839;23;20258;-89
2024/03/06 14:39:30;;;;;;;21.52;9.75;;;;;;;;;;6182124;23;20495;-90
2024/03/06 14:42:35;;;;;;;21.80;9.77;;;;;;;;;;6181004;23;20615;-89
2024/03/06 14:45:46;;;;;;;24.83;9.27;;;;;;;;;;6200419;23;20224;-89
2024/03/06 14:48:54;;;;;;;19.98;9.63;;;;;;;;;;6181270;23;20210;-89
2024/03/06 14:52:03;;;;;;;20.77;9.25;;;;;;;;;;6185597;23;20244;-89
2024/03/06 14:58:31;;;;;;;23.38;9.70;;;;;;;;;;6204325;23;20168;-88
2024/03/06 15:01:40;;;;;;;23.25;10.48;;;;;;;;;;6186898;23;20176;-89
2024/03/06 15:08:10;;;;;;;21.92;9.10;;;;;;;;;;6203267;23;20164;-90
2024/03/06 15:11:16;;;;;;;25.17;10.82;;;;;;;;;;6186941;23;20188;-90
2024/03/06 15:14:22;;;;;;;21.70;9.75;;;;;;;;;;6186035;23;20196;-90
2024/03/06 15:17:27;;;;;;;26.67;10.70;;;;;;;;;;6185814;23;20196;-89
2024/03/06 15:20:35;;;;;;;23.92;10.75;;;;;;;;;;6185556;23;20168;-90
2024/03/06 15:23:40;;;;;;;21.80;9.73;;;;;;;;;;6200856;23;20196;-90
2024/03/06 15:26:47;;;;;;;26.25;8.98;;;;;;;;;;6186801;23;20168;-90
2024/03/06 15:29:52;;;;;;;21.85;9.02;;;;;;;;;;6184155;23;20203;-90
2024/03/06 15:32:58;;;;;;;25.90;8.85;;;;;;;;;;6189504;23;20195;-90
2024/03/06 15:36:14;;;;;;;20.50;8.68;;;;;;;;;;6190529;23;20167;-90
2024/03/06 15:39:21;;;;;;;20.52;9.18;;;;;;;;;;6188233;23;20191;-90
2024/03/06 15:42:34;;;;;;;20.95;9.57;;;;;;;;;;6187664;23;20164;-89
2024/03/06 15:45:42;;;;;;;24.27;9.82;;;;;;;;;;6189166;23;20192;-88
2024/03/06 15:48:51;;;;;;;21.38;9.73;;;;;;;;;;6186283;23;20483;-89
2024/03/06 15:51:58;;;;;;;24.30;9.43;;;;;;;;;;6182628;23;20171;-89
2024/03/06 15:55:04;;;;;;;23.00;9.63;;;;;;;;;;6188778;23;20176;-89
2024/03/06 15:58:10;;;;;;;25.73;9.77;;;;;;;;;;6183391;23;20168;-91
2024/03/06 16:01:16;;;;;;;22.05;9.35;;;;;;;;;;6184174;23;20301;-91
2024/03/06 16:04:21;;;;;;;23.40;9.20;;;;;;;;;;6183689;23;20200;-90
2024/03/06 16:07:28;;;;;;;20.42;9.73;;;;;;;;;;6182962;23;20170;-92
2024/03/06 16:10:34;;;;;;;23.27;9.32;;;;;;;;;;6183855;23;20164;-90
2024/03/06 16:13:49;;;;;;;20.20;9.27;;;;;;;;;;6182899;23;20496;-91
2024/03/06 16:16:55;;;;;;;22.10;8.85;;;;;;;;;;6181688;23;20215;-90
2024/03/06 16:20:00;;;;;;;22.48;8.90;;;;;;;;;;6181794;23;20172;-90
2024/03/06 16:23:08;;;;;;;19.92;9.57;;;;;;;;;;6181791;23;20308;-89
2024/03/06 16:26:13;;;;;;;18.80;8.88;;;;;;;;;;6180671;23;20221;-88
2024/03/06 16:29:19;;;;;;;20.13;8.65;;;;;;;;;;6179652;23;20230;-88
2024/03/06 16:32:24;;;;;;;26.08;8.85;;;;;;;;;;6181958;23;20148;-90
2024/03/06 16:35:31;;;;;;;19.23;7.75;;;;;;;;;;6184359;23;20241;-90
2024/03/06 16:38:42;;;;;;;22.55;8.80;;;;;;;;;;6184555;23;20164;-91
2024/03/06 16:41:48;;;;;;;22.20;8.57;;;;;;;;;;6185744;23;20239;-91
2024/03/06 16:44:54;;;;;;;24.17;9.38;;;;;;;;;;6183282;23;20206;-89
2024/03/06 16:48:00;;;;;;;21.70;9.02;;;;;;;;;;6183777;23;20162;-90
2024/03/06 16:51:05;;;;;;;19.23;8.60;;;;;;;;;;6187965;23;20172;-90
2024/03/06 16:54:12;;;;;;;22.25;9.15;;;;;;;;;;6184009;23;20496;-91
2024/03/06 16:57:19;;;;;;;38.47;16.30;;;;;;;;;;6186158;23;20193;-90
2024/03/06 17:00:28;;;;;;;23.00;9.18;;;;;;;;;;6207387;23;20168;-91
2024/03/06 17:03:33;;;;;;;19.63;8.95;;;;;;;;;;6187555;23;20180;-89
2024/03/06 17:06:39;;;;;;;21.67;9.07;;;;;;;;;;6187558;23;20167;-91
2024/03/06 17:09:46;;;;;;;20.70;9.95;;;;;;;;;;6186602;23;20309;-90
2024/03/06 17:12:52;;;;;;;20.58;9.30;;;;;;;;;;6186837;23;20232;-91
2024/03/06 17:15:58;;;;;;;22.77;9.77;;;;;;;;;;6188122;23;20175;-90
2024/03/06 17:22:23;;;;;;;22.83;9.60;;;;;;;;;;6205592;23;20167;-92
2024/03/06 17:25:30;;;;;;;27.15;9.82;;;;;;;;;;6183937;23;20215;-90
2024/03/06 17:28:35;;;;;;;22.33;9.95;;;;;;;;;;6184355;23;20171;-90
2024/03/06 17:31:46;;;;;;;27.67;10.63;;;;;;;;;;6186405;23;20180;-91
2024/03/06 17:34:51;;;;;;;23.63;9.77;;;;;;;;;;6201975;23;20196;-91
2024/03/06 17:37:57;;;;;;;24.67;10.75;;;;;;;;;;6184961;23;20176;-91
2024/03/06 17:41:03;;;;;;;21.48;9.90;;;;;;;;;;6205559;23;20167;-90
2024/03/06 17:44:09;;;;;;;22.38;10.35;;;;;;;;;;6184624;23;20241;-89
2024/03/06 17:47:16;;;;;;;24.33;10.55;;;;;;;;;;6202685;23;20164;-91
2024/03/06 17:50:22;;;;;;;23.02;10.40;;;;;;;;;;6204304;23;20155;-89
2024/03/06 17:53:36;;;;;;;24.42;10.43;;;;;;;;;;6203531;23;20221;-91
2024/03/06 17:56:43;;;;;;;25.98;10.35;;;;;;;;;;6203080;23;20223;-91
2024/03/06 17:59:49;;;;;;;25.98;12.20;;;;;;;;;;6187515;23;20169;-91
2024/03/06 18:02:58;;;;;;;26.85;11.45;;;;;;;;;;6203847;23;20152;-91
2024/03/06 18:06:04;;;;;;;25.80;11.48;;;;;;;;;;6203306;23;20200;-92
2024/03/06 18:09:15;;;;;;;31.52;13.32;;;;;;;;;;6202910;23;20148;-91
2024/03/06 18:12:25;;;;;;;26.02;11.65;;;;;;;;;;6201241;23;20176;-90
2024/03/06 18:15:31;;;;;;;33.50;16.27;;;;;;;;;;6203368;23;20176;-91
2024/03/06 18:18:37;;;;;;;29.25;11.65;;;;;;;;;;6202483;23;20225;-90